sensor_id;sensor_type;location;lat;lon;timestamp;P1;durP1;ratioP1;P2;durP2;ratioP2
71091;SDS011;58751;50.708;7.134;2022-10-15T00:00:28;6.13;;;5.53;;
71091;SDS011;58751;50.708;7.134;2022-10-15T00:02:55;5.03;;;4.53;;
71091;SDS011;58751;50.708;7.134;2022-10-15T00:05:20;5.13;;;4.60;;
71091;SDS011;58751;50.708;7.134;2022-10-15T00:07:46;12.20;;;4.07;;
71091;SDS011;58751;50.708;7.134;2022-10-15T00:10:11;5.83;;;5.33;;
71091;SDS011;58751;50.708;7.134;2022-10-15T00:12:37;4.43;;;4.03;;
71091;SDS011;58751;50.708;7.134;2022-10-15T00:15:02;5.23;;;4.73;;
71091;SDS011;58751;50.708;7.134;2022-10-15T00:17:27;4.23;;;3.83;;
71091;SDS011;58751;50.708;7.134;2022-10-15T00:19:54;5.50;;;5.00;;
71091;SDS011;58751;50.708;7.134;2022-10-15T00:22:19;5.50;;;4.95;;
71091;SDS011;58751;50.708;7.134;2022-10-15T00:24:44;4.20;;;3.80;;
71091;SDS011;58751;50.708;7.134;2022-10-15T00:27:10;4.93;;;4.50;;
71091;SDS011;58751;50.708;7.134;2022-10-15T00:29:35;7.00;;;4.60;;
71091;SDS011;58751;50.708;7.134;2022-10-15T00:32:00;5.00;;;4.60;;
71091;SDS011;58751;50.708;7.134;2022-10-15T00:34:25;4.50;;;4.10;;
71091;SDS011;58751;50.708;7.134;2022-10-15T00:36:52;5.03;;;4.57;;
71091;SDS011;58751;50.708;7.134;2022-10-15T00:39:17;5.50;;;4.70;;
71091;SDS011;58751;50.708;7.134;2022-10-15T00:41:43;5.97;;;5.40;;
71091;SDS011;58751;50.708;7.134;2022-10-15T00:46:52;6.70;;;5.47;;
71091;SDS011;58751;50.708;7.134;2022-10-15T00:49:19;6.60;;;4.80;;
71091;SDS011;58751;50.708;7.134;2022-10-15T00:51:46;6.13;;;5.53;;
71091;SDS011;58751;50.708;7.134;2022-10-15T00:54:14;5.97;;;5.28;;
71091;SDS011;58751;50.708;7.134;2022-10-15T00:56:40;5.07;;;4.68;;
71091;SDS011;58751;50.708;7.134;2022-10-15T00:59:07;7.05;;;5.10;;
71091;SDS011;58751;50.708;7.134;2022-10-15T01:01:33;5.40;;;4.50;;
71091;SDS011;58751;50.708;7.134;2022-10-15T01:03:58;5.20;;;4.77;;
71091;SDS011;58751;50.708;7.134;2022-10-15T01:06:25;5.93;;;4.70;;
71091;SDS011;58751;50.708;7.134;2022-10-15T01:08:50;9.20;;;6.97;;
71091;SDS011;58751;50.708;7.134;2022-10-15T01:11:20;5.37;;;4.73;;
71091;SDS011;58751;50.708;7.134;2022-10-15T01:13:50;7.10;;;5.75;;
71091;SDS011;58751;50.708;7.134;2022-10-15T01:16:21;5.93;;;5.32;;
71091;SDS011;58751;50.708;7.134;2022-10-15T01:18:50;5.07;;;4.57;;
71091;SDS011;58751;50.708;7.134;2022-10-15T01:21:18;6.43;;;5.45;;
71091;SDS011;58751;50.708;7.134;2022-10-15T01:26:44;5.30;;;4.80;;
71091;SDS011;58751;50.708;7.134;2022-10-15T01:29:13;5.40;;;4.72;;
71091;SDS011;58751;50.708;7.134;2022-10-15T01:31:46;6.82;;;5.07;;
71091;SDS011;58751;50.708;7.134;2022-10-15T01:34:15;5.00;;;4.50;;
71091;SDS011;58751;50.708;7.134;2022-10-15T01:36:44;5.63;;;5.13;;
71091;SDS011;58751;50.708;7.134;2022-10-15T01:39:13;5.13;;;4.65;;
71091;SDS011;58751;50.708;7.134;2022-10-15T01:41:40;4.85;;;4.45;;
71091;SDS011;58751;50.708;7.134;2022-10-15T01:44:08;4.45;;;4.05;;
71091;SDS011;58751;50.708;7.134;2022-10-15T01:46:36;6.78;;;4.55;;
71091;SDS011;58751;50.708;7.134;2022-10-15T01:49:04;4.97;;;4.53;;
71091;SDS011;58751;50.708;7.134;2022-10-15T01:51:29;4.00;;;3.70;;
71091;SDS011;58751;50.708;7.134;2022-10-15T01:53:56;3.30;;;3.00;;
71091;SDS011;58751;50.708;7.134;2022-10-15T01:56:22;4.03;;;3.63;;
71091;SDS011;58751;50.708;7.134;2022-10-15T01:58:48;2.83;;;2.63;;
71091;SDS011;58751;50.708;7.134;2022-10-15T02:01:14;3.40;;;3.20;;
71091;SDS011;58751;50.708;7.134;2022-10-15T02:03:44;2.20;;;2.10;;
71091;SDS011;58751;50.708;7.134;2022-10-15T02:06:12;3.20;;;3.00;;
71091;SDS011;58751;50.708;7.134;2022-10-15T02:08:38;3.67;;;3.38;;
71091;SDS011;58751;50.708;7.134;2022-10-15T02:11:06;5.15;;;3.40;;
71091;SDS011;58751;50.708;7.134;2022-10-15T02:13:34;3.78;;;3.47;;
71091;SDS011;58751;50.708;7.134;2022-10-15T02:16:05;2.70;;;2.50;;
71091;SDS011;58751;50.708;7.134;2022-10-15T02:18:36;2.95;;;2.50;;
71091;SDS011;58751;50.708;7.134;2022-10-15T02:21:05;3.00;;;2.70;;
71091;SDS011;58751;50.708;7.134;2022-10-15T02:23:33;3.20;;;2.72;;
71091;SDS011;58751;50.708;7.134;2022-10-15T02:26:00;2.78;;;2.58;;
71091;SDS011;58751;50.708;7.134;2022-10-15T02:28:28;4.80;;;4.40;;
71091;SDS011;58751;50.708;7.134;2022-10-15T02:30:54;3.50;;;3.20;;
71091;SDS011;58751;50.708;7.134;2022-10-15T02:33:20;3.63;;;3.33;;
71091;SDS011;58751;50.708;7.134;2022-10-15T02:35:47;4.00;;;3.60;;
71091;SDS011;58751;50.708;7.134;2022-10-15T02:38:14;5.85;;;3.70;;
71091;SDS011;58751;50.708;7.134;2022-10-15T02:40:42;4.10;;;3.70;;
71091;SDS011;58751;50.708;7.134;2022-10-15T02:43:08;4.10;;;3.70;;
71091;SDS011;58751;50.708;7.134;2022-10-15T02:45:33;4.00;;;3.63;;
71091;SDS011;58751;50.708;7.134;2022-10-15T02:47:59;3.43;;;3.10;;
71091;SDS011;58751;50.708;7.134;2022-10-15T02:50:24;5.00;;;3.83;;
71091;SDS011;58751;50.708;7.134;2022-10-15T02:52:49;3.63;;;3.33;;
71091;SDS011;58751;50.708;7.134;2022-10-15T02:55:14;4.30;;;3.83;;
71091;SDS011;58751;50.708;7.134;2022-10-15T02:57:41;4.67;;;3.10;;
71091;SDS011;58751;50.708;7.134;2022-10-15T03:00:06;4.45;;;4.10;;
71091;SDS011;58751;50.708;7.134;2022-10-15T03:02:32;5.20;;;4.70;;
71091;SDS011;58751;50.708;7.134;2022-10-15T03:04:57;4.27;;;3.77;;
71091;SDS011;58751;50.708;7.134;2022-10-15T03:07:22;4.40;;;4.00;;
71091;SDS011;58751;50.708;7.134;2022-10-15T03:09:47;2.63;;;2.43;;
71091;SDS011;58751;50.708;7.134;2022-10-15T03:12:13;3.43;;;3.13;;
71091;SDS011;58751;50.708;7.134;2022-10-15T03:14:39;3.10;;;2.90;;
71091;SDS011;58751;50.708;7.134;2022-10-15T03:17:04;5.60;;;3.05;;
71091;SDS011;58751;50.708;7.134;2022-10-15T03:19:30;3.47;;;3.17;;
71091;SDS011;58751;50.708;7.134;2022-10-15T03:21:55;3.20;;;3.00;;
71091;SDS011;58751;50.708;7.134;2022-10-15T03:24:20;3.57;;;3.27;;
71091;SDS011;58751;50.708;7.134;2022-10-15T03:26:45;4.30;;;3.90;;
71091;SDS011;58751;50.708;7.134;2022-10-15T03:29:10;4.10;;;3.00;;
71091;SDS011;58751;50.708;7.134;2022-10-15T03:31:37;3.57;;;3.33;;
71091;SDS011;58751;50.708;7.134;2022-10-15T03:34:03;4.47;;;4.10;;
71091;SDS011;58751;50.708;7.134;2022-10-15T03:36:28;4.00;;;3.60;;
71091;SDS011;58751;50.708;7.134;2022-10-15T03:38:53;4.87;;;4.07;;
71091;SDS011;58751;50.708;7.134;2022-10-15T03:41:19;5.10;;;3.80;;
71091;SDS011;58751;50.708;7.134;2022-10-15T03:43:44;5.47;;;3.67;;
71091;SDS011;58751;50.708;7.134;2022-10-15T03:46:09;4.43;;;3.40;;
71091;SDS011;58751;50.708;7.134;2022-10-15T03:48:35;3.43;;;3.13;;
71091;SDS011;58751;50.708;7.134;2022-10-15T03:51:01;4.10;;;3.53;;
71091;SDS011;58751;50.708;7.134;2022-10-15T03:53:26;3.63;;;3.33;;
71091;SDS011;58751;50.708;7.134;2022-10-15T03:55:51;4.07;;;3.77;;
71091;SDS011;58751;50.708;7.134;2022-10-15T03:58:16;4.30;;;3.90;;
71091;SDS011;58751;50.708;7.134;2022-10-15T04:00:42;3.30;;;3.00;;
71091;SDS011;58751;50.708;7.134;2022-10-15T04:03:07;3.03;;;2.80;;
71091;SDS011;58751;50.708;7.134;2022-10-15T04:05:34;3.40;;;3.10;;
71091;SDS011;58751;50.708;7.134;2022-10-15T04:07:59;3.95;;;2.95;;
71091;SDS011;58751;50.708;7.134;2022-10-15T04:10:24;2.37;;;2.10;;
71091;SDS011;58751;50.708;7.134;2022-10-15T04:12:50;2.00;;;1.90;;
71091;SDS011;58751;50.708;7.134;2022-10-15T04:15:15;2.60;;;2.40;;
71091;SDS011;58751;50.708;7.134;2022-10-15T04:17:40;3.83;;;3.53;;
71091;SDS011;58751;50.708;7.134;2022-10-15T04:20:06;3.90;;;3.50;;
71091;SDS011;58751;50.708;7.134;2022-10-15T04:22:33;2.80;;;2.60;;
71091;SDS011;58751;50.708;7.134;2022-10-15T04:24:58;2.33;;;2.22;;
71091;SDS011;58751;50.708;7.134;2022-10-15T04:27:23;3.33;;;2.80;;
71091;SDS011;58751;50.708;7.134;2022-10-15T04:29:48;3.30;;;3.00;;
71091;SDS011;58751;50.708;7.134;2022-10-15T04:32:14;5.90;;;2.50;;
71091;SDS011;58751;50.708;7.134;2022-10-15T04:34:39;4.10;;;3.03;;
71091;SDS011;58751;50.708;7.134;2022-10-15T04:37:04;2.80;;;2.50;;
71091;SDS011;58751;50.708;7.134;2022-10-15T04:39:30;2.63;;;2.40;;
71091;SDS011;58751;50.708;7.134;2022-10-15T04:41:56;2.22;;;2.13;;
71091;SDS011;58751;50.708;7.134;2022-10-15T04:44:21;2.60;;;2.40;;
71091;SDS011;58751;50.708;7.134;2022-10-15T04:46:46;3.83;;;3.00;;
71091;SDS011;58751;50.708;7.134;2022-10-15T04:49:11;2.60;;;2.40;;
71091;SDS011;58751;50.708;7.134;2022-10-15T04:51:36;2.30;;;2.20;;
71091;SDS011;58751;50.708;7.134;2022-10-15T04:54:02;2.33;;;2.07;;
71091;SDS011;58751;50.708;7.134;2022-10-15T04:56:28;3.83;;;2.37;;
71091;SDS011;58751;50.708;7.134;2022-10-15T04:58:54;6.07;;;2.20;;
71091;SDS011;58751;50.708;7.134;2022-10-15T05:01:19;3.17;;;2.60;;
71091;SDS011;58751;50.708;7.134;2022-10-15T05:03:45;2.20;;;2.00;;
71091;SDS011;58751;50.708;7.134;2022-10-15T05:06:12;2.67;;;2.47;;
71091;SDS011;58751;50.708;7.134;2022-10-15T05:08:37;2.30;;;2.03;;
71091;SDS011;58751;50.708;7.134;2022-10-15T05:11:03;2.30;;;2.10;;
71091;SDS011;58751;50.708;7.134;2022-10-15T05:13:30;2.08;;;1.98;;
71091;SDS011;58751;50.708;7.134;2022-10-15T05:15:55;2.65;;;2.42;;
71091;SDS011;58751;50.708;7.134;2022-10-15T05:18:21;6.80;;;3.37;;
71091;SDS011;58751;50.708;7.134;2022-10-15T05:20:46;3.40;;;3.17;;
71091;SDS011;58751;50.708;7.134;2022-10-15T05:23:11;3.23;;;2.93;;
71091;SDS011;58751;50.708;7.134;2022-10-15T05:25:36;3.00;;;2.67;;
71091;SDS011;58751;50.708;7.134;2022-10-15T05:28:01;2.90;;;2.70;;
71091;SDS011;58751;50.708;7.134;2022-10-15T05:30:28;3.70;;;2.60;;
71091;SDS011;58751;50.708;7.134;2022-10-15T05:32:53;3.65;;;3.08;;
71091;SDS011;58751;50.708;7.134;2022-10-15T05:35:19;2.60;;;2.40;;
71091;SDS011;58751;50.708;7.134;2022-10-15T05:37:44;4.37;;;2.83;;
71091;SDS011;58751;50.708;7.134;2022-10-15T05:40:10;3.70;;;3.00;;
71091;SDS011;58751;50.708;7.134;2022-10-15T05:42:35;3.00;;;2.77;;
71091;SDS011;58751;50.708;7.134;2022-10-15T05:45:00;3.97;;;3.00;;
71091;SDS011;58751;50.708;7.134;2022-10-15T05:47:27;3.83;;;3.40;;
71091;SDS011;58751;50.708;7.134;2022-10-15T05:49:52;3.85;;;3.55;;
71091;SDS011;58751;50.708;7.134;2022-10-15T05:52:17;3.90;;;3.50;;
71091;SDS011;58751;50.708;7.134;2022-10-15T05:54:42;4.77;;;3.80;;
71091;SDS011;58751;50.708;7.134;2022-10-15T05:57:08;4.90;;;4.30;;
71091;SDS011;58751;50.708;7.134;2022-10-15T05:59:33;6.17;;;5.20;;
71091;SDS011;58751;50.708;7.134;2022-10-15T06:01:58;5.43;;;4.80;;
71091;SDS011;58751;50.708;7.134;2022-10-15T06:04:25;8.03;;;5.27;;
71091;SDS011;58751;50.708;7.134;2022-10-15T06:06:50;5.05;;;4.50;;
71091;SDS011;58751;50.708;7.134;2022-10-15T06:09:15;6.33;;;4.77;;
71091;SDS011;58751;50.708;7.134;2022-10-15T06:11:41;4.73;;;4.33;;
71091;SDS011;58751;50.708;7.134;2022-10-15T06:14:06;5.30;;;4.77;;
71091;SDS011;58751;50.708;7.134;2022-10-15T06:16:31;6.80;;;5.10;;
71091;SDS011;58751;50.708;7.134;2022-10-15T06:18:56;6.73;;;5.73;;
71091;SDS011;58751;50.708;7.134;2022-10-15T06:21:23;6.93;;;5.13;;
71091;SDS011;58751;50.708;7.134;2022-10-15T06:23:48;6.15;;;5.38;;
71091;SDS011;58751;50.708;7.134;2022-10-15T06:26:14;7.57;;;5.97;;
71091;SDS011;58751;50.708;7.134;2022-10-15T06:28:39;6.57;;;5.70;;
71091;SDS011;58751;50.708;7.134;2022-10-15T06:31:04;6.70;;;5.27;;
71091;SDS011;58751;50.708;7.134;2022-10-15T06:33:30;6.63;;;5.57;;
71091;SDS011;58751;50.708;7.134;2022-10-15T06:35:59;6.73;;;5.00;;
71091;SDS011;58751;50.708;7.134;2022-10-15T06:38:25;6.25;;;3.55;;
71091;SDS011;58751;50.708;7.134;2022-10-15T06:40:50;4.78;;;4.38;;
71091;SDS011;58751;50.708;7.134;2022-10-15T06:43:16;3.87;;;3.33;;
71091;SDS011;58751;50.708;7.134;2022-10-15T06:45:41;3.10;;;2.40;;
71091;SDS011;58751;50.708;7.134;2022-10-15T06:48:06;3.50;;;3.20;;
71091;SDS011;58751;50.708;7.134;2022-10-15T06:50:32;3.10;;;2.73;;
71091;SDS011;58751;50.708;7.134;2022-10-15T06:52:57;2.60;;;2.40;;
71091;SDS011;58751;50.708;7.134;2022-10-15T06:55:24;2.33;;;2.13;;
71091;SDS011;58751;50.708;7.134;2022-10-15T06:57:49;2.80;;;2.60;;
71091;SDS011;58751;50.708;7.134;2022-10-15T07:00:14;2.97;;;2.10;;
71091;SDS011;58751;50.708;7.134;2022-10-15T07:02:40;3.27;;;2.53;;
71091;SDS011;58751;50.708;7.134;2022-10-15T07:05:05;3.83;;;2.60;;
71091;SDS011;58751;50.708;7.134;2022-10-15T07:07:31;3.37;;;3.10;;
71091;SDS011;58751;50.708;7.134;2022-10-15T07:09:56;6.13;;;3.90;;
71091;SDS011;58751;50.708;7.134;2022-10-15T07:12:22;3.90;;;3.40;;
71091;SDS011;58751;50.708;7.134;2022-10-15T07:14:48;4.63;;;4.20;;
71091;SDS011;58751;50.708;7.134;2022-10-15T07:17:13;5.23;;;4.30;;
71091;SDS011;58751;50.708;7.134;2022-10-15T07:19:39;7.63;;;3.93;;
71091;SDS011;58751;50.708;7.134;2022-10-15T07:22:04;4.33;;;3.93;;
71091;SDS011;58751;50.708;7.134;2022-10-15T07:24:29;6.40;;;5.20;;
71091;SDS011;58751;50.708;7.134;2022-10-15T07:26:54;5.93;;;5.10;;
71091;SDS011;58751;50.708;7.134;2022-10-15T07:29:21;6.87;;;4.90;;
71091;SDS011;58751;50.708;7.134;2022-10-15T07:31:46;5.90;;;4.77;;
71091;SDS011;58751;50.708;7.134;2022-10-15T07:34:11;5.23;;;4.50;;
71091;SDS011;58751;50.708;7.134;2022-10-15T07:36:36;7.00;;;4.87;;
71091;SDS011;58751;50.708;7.134;2022-10-15T07:39:02;5.80;;;5.27;;
71091;SDS011;58751;50.708;7.134;2022-10-15T07:41:27;6.30;;;4.90;;
71091;SDS011;58751;50.708;7.134;2022-10-15T07:43:54;7.00;;;4.97;;
71091;SDS011;58751;50.708;7.134;2022-10-15T07:46:21;4.20;;;3.80;;
71091;SDS011;58751;50.708;7.134;2022-10-15T07:48:46;5.73;;;5.23;;
71091;SDS011;58751;50.708;7.134;2022-10-15T07:51:11;6.47;;;4.40;;
71091;SDS011;58751;50.708;7.134;2022-10-15T07:53:37;3.93;;;3.63;;
71091;SDS011;58751;50.708;7.134;2022-10-15T07:56:03;3.87;;;3.37;;
71091;SDS011;58751;50.708;7.134;2022-10-15T07:58:28;3.90;;;3.60;;
71091;SDS011;58751;50.708;7.134;2022-10-15T08:00:53;4.43;;;4.03;;
71091;SDS011;58751;50.708;7.134;2022-10-15T08:03:20;5.33;;;4.30;;
71091;SDS011;58751;50.708;7.134;2022-10-15T08:05:45;4.20;;;3.80;;
71091;SDS011;58751;50.708;7.134;2022-10-15T08:08:10;3.80;;;3.13;;
71091;SDS011;58751;50.708;7.134;2022-10-15T08:10:36;3.10;;;2.90;;
71091;SDS011;58751;50.708;7.134;2022-10-15T08:13:01;3.10;;;2.80;;
71091;SDS011;58751;50.708;7.134;2022-10-15T08:15:26;3.80;;;2.80;;
71091;SDS011;58751;50.708;7.134;2022-10-15T08:17:51;3.90;;;3.10;;
71091;SDS011;58751;50.708;7.134;2022-10-15T08:20:18;3.60;;;3.30;;
71091;SDS011;58751;50.708;7.134;2022-10-15T08:22:43;5.30;;;3.30;;
71091;SDS011;58751;50.708;7.134;2022-10-15T08:25:08;3.43;;;3.20;;
71091;SDS011;58751;50.708;7.134;2022-10-15T08:27:34;3.33;;;3.03;;
71091;SDS011;58751;50.708;7.134;2022-10-15T08:29:59;3.43;;;3.13;;
71091;SDS011;58751;50.708;7.134;2022-10-15T08:32:24;4.10;;;3.20;;
71091;SDS011;58751;50.708;7.134;2022-10-15T08:34:49;3.60;;;2.40;;
71091;SDS011;58751;50.708;7.134;2022-10-15T08:37:16;3.00;;;2.70;;
71091;SDS011;58751;50.708;7.134;2022-10-15T08:39:41;2.50;;;2.30;;
71091;SDS011;58751;50.708;7.134;2022-10-15T08:42:10;2.73;;;2.53;;
71091;SDS011;58751;50.708;7.134;2022-10-15T08:44:39;2.47;;;2.30;;
71091;SDS011;58751;50.708;7.134;2022-10-15T08:47:06;2.57;;;2.37;;
71091;SDS011;58751;50.708;7.134;2022-10-15T08:49:35;2.70;;;2.50;;
71091;SDS011;58751;50.708;7.134;2022-10-15T08:52:03;2.20;;;1.70;;
71091;SDS011;58751;50.708;7.134;2022-10-15T08:54:31;2.00;;;1.57;;
71091;SDS011;58751;50.708;7.134;2022-10-15T08:57:02;1.60;;;1.50;;
71091;SDS011;58751;50.708;7.134;2022-10-15T08:59:32;1.30;;;1.20;;
71091;SDS011;58751;50.708;7.134;2022-10-15T09:02:01;1.27;;;1.17;;
71091;SDS011;58751;50.708;7.134;2022-10-15T09:04:29;1.00;;;1.00;;
71091;SDS011;58751;50.708;7.134;2022-10-15T09:06:57;1.40;;;1.17;;
71091;SDS011;58751;50.708;7.134;2022-10-15T09:09:25;1.17;;;1.07;;
71091;SDS011;58751;50.708;7.134;2022-10-15T09:11:55;1.00;;;1.00;;
71091;SDS011;58751;50.708;7.134;2022-10-15T09:14:24;1.20;;;1.10;;
71091;SDS011;58751;50.708;7.134;2022-10-15T09:16:51;1.00;;;1.00;;
71091;SDS011;58751;50.708;7.134;2022-10-15T09:19:17;2.07;;;1.20;;
71091;SDS011;58751;50.708;7.134;2022-10-15T09:21:43;1.57;;;0.77;;
71091;SDS011;58751;50.708;7.134;2022-10-15T09:24:09;1.50;;;1.10;;
71091;SDS011;58751;50.708;7.134;2022-10-15T09:26:38;0.63;;;0.63;;
71091;SDS011;58751;50.708;7.134;2022-10-15T09:29:10;1.20;;;1.10;;
71091;SDS011;58751;50.708;7.134;2022-10-15T09:31:38;1.20;;;1.00;;
71091;SDS011;58751;50.708;7.134;2022-10-15T09:34:09;2.00;;;0.90;;
71091;SDS011;58751;50.708;7.134;2022-10-15T09:36:36;0.90;;;0.90;;
71091;SDS011;58751;50.708;7.134;2022-10-15T09:39:12;1.13;;;1.10;;
71091;SDS011;58751;50.708;7.134;2022-10-15T09:41:42;0.70;;;0.70;;
71091;SDS011;58751;50.708;7.134;2022-10-15T09:44:11;0.70;;;0.70;;
71091;SDS011;58751;50.708;7.134;2022-10-15T09:46:41;1.00;;;1.00;;
71091;SDS011;58751;50.708;7.134;2022-10-15T09:49:07;0.77;;;0.77;;
71091;SDS011;58751;50.708;7.134;2022-10-15T09:51:33;0.80;;;0.70;;
71091;SDS011;58751;50.708;7.134;2022-10-15T09:54:01;0.73;;;0.73;;
71091;SDS011;58751;50.708;7.134;2022-10-15T09:56:29;1.07;;;0.83;;
71091;SDS011;58751;50.708;7.134;2022-10-15T09:58:56;1.17;;;0.90;;
71091;SDS011;58751;50.708;7.134;2022-10-15T10:01:23;1.27;;;0.70;;
71091;SDS011;58751;50.708;7.134;2022-10-15T10:03:50;1.00;;;0.90;;
71091;SDS011;58751;50.708;7.134;2022-10-15T10:06:16;1.03;;;0.80;;
71091;SDS011;58751;50.708;7.134;2022-10-15T10:08:46;0.63;;;0.63;;
71091;SDS011;58751;50.708;7.134;2022-10-15T10:11:13;0.80;;;0.80;;
71091;SDS011;58751;50.708;7.134;2022-10-15T10:13:39;0.80;;;0.80;;
71091;SDS011;58751;50.708;7.134;2022-10-15T10:16:05;0.70;;;0.70;;
71091;SDS011;58751;50.708;7.134;2022-10-15T10:18:33;0.60;;;0.60;;
71091;SDS011;58751;50.708;7.134;2022-10-15T10:20:59;1.03;;;0.90;;
71091;SDS011;58751;50.708;7.134;2022-10-15T10:23:28;1.37;;;0.63;;
71091;SDS011;58751;50.708;7.134;2022-10-15T10:25:54;1.40;;;0.70;;
71091;SDS011;58751;50.708;7.134;2022-10-15T10:28:20;0.67;;;0.67;;
71091;SDS011;58751;50.708;7.134;2022-10-15T10:30:50;0.80;;;0.67;;
71091;SDS011;58751;50.708;7.134;2022-10-15T10:33:20;0.60;;;0.60;;
71091;SDS011;58751;50.708;7.134;2022-10-15T10:35:49;0.60;;;0.53;;
71091;SDS011;58751;50.708;7.134;2022-10-15T10:38:21;0.80;;;0.80;;
71091;SDS011;58751;50.708;7.134;2022-10-15T10:40:49;0.77;;;0.60;;
71091;SDS011;58751;50.708;7.134;2022-10-15T10:43:17;0.80;;;0.50;;
71091;SDS011;58751;50.708;7.134;2022-10-15T10:45:49;0.60;;;0.60;;
71091;SDS011;58751;50.708;7.134;2022-10-15T10:48:17;0.90;;;0.50;;
71091;SDS011;58751;50.708;7.134;2022-10-15T10:50:42;0.50;;;0.37;;
71091;SDS011;58751;50.708;7.134;2022-10-15T10:53:20;0.50;;;0.43;;
71091;SDS011;58751;50.708;7.134;2022-10-15T10:55:46;0.43;;;0.40;;
71091;SDS011;58751;50.708;7.134;2022-10-15T10:58:14;0.40;;;0.30;;
71091;SDS011;58751;50.708;7.134;2022-10-15T11:00:41;0.60;;;0.50;;
71091;SDS011;58751;50.708;7.134;2022-10-15T11:03:10;0.40;;;0.40;;
71091;SDS011;58751;50.708;7.134;2022-10-15T11:05:38;0.30;;;0.30;;
71091;SDS011;58751;50.708;7.134;2022-10-15T11:08:06;0.40;;;0.30;;
71091;SDS011;58751;50.708;7.134;2022-10-15T11:10:36;0.40;;;0.30;;
71091;SDS011;58751;50.708;7.134;2022-10-15T11:13:06;0.37;;;0.23;;
71091;SDS011;58751;50.708;7.134;2022-10-15T11:15:38;0.77;;;0.47;;
71091;SDS011;58751;50.708;7.134;2022-10-15T11:18:13;0.60;;;0.60;;
71091;SDS011;58751;50.708;7.134;2022-10-15T11:20:46;0.40;;;0.30;;
71091;SDS011;58751;50.708;7.134;2022-10-15T11:23:14;0.40;;;0.40;;
71091;SDS011;58751;50.708;7.134;2022-10-15T11:25:47;0.40;;;0.23;;
71091;SDS011;58751;50.708;7.134;2022-10-15T11:28:20;0.30;;;0.20;;
71091;SDS011;58751;50.708;7.134;2022-10-15T11:30:48;0.40;;;0.30;;
71091;SDS011;58751;50.708;7.134;2022-10-15T11:33:19;0.90;;;0.40;;
71091;SDS011;58751;50.708;7.134;2022-10-15T11:35:49;0.30;;;0.20;;
71091;SDS011;58751;50.708;7.134;2022-10-15T11:38:21;0.60;;;0.23;;
71091;SDS011;58751;50.708;7.134;2022-10-15T11:40:50;0.40;;;0.30;;
71091;SDS011;58751;50.708;7.134;2022-10-15T11:43:27;0.30;;;0.20;;
71091;SDS011;58751;50.708;7.134;2022-10-15T11:45:58;0.30;;;0.27;;
71091;SDS011;58751;50.708;7.134;2022-10-15T11:48:36;0.50;;;0.30;;
71091;SDS011;58751;50.708;7.134;2022-10-15T11:51:05;0.40;;;0.23;;
71091;SDS011;58751;50.708;7.134;2022-10-15T11:53:44;0.50;;;0.30;;
71091;SDS011;58751;50.708;7.134;2022-10-15T11:56:17;0.77;;;0.40;;
71091;SDS011;58751;50.708;7.134;2022-10-15T11:58:44;0.30;;;0.20;;
71091;SDS011;58751;50.708;7.134;2022-10-15T12:01:11;0.40;;;0.30;;
71091;SDS011;58751;50.708;7.134;2022-10-15T12:03:38;0.40;;;0.30;;
71091;SDS011;58751;50.708;7.134;2022-10-15T12:06:07;0.50;;;0.40;;
71091;SDS011;58751;50.708;7.134;2022-10-15T12:08:34;1.27;;;0.33;;
71091;SDS011;58751;50.708;7.134;2022-10-15T12:11:06;0.40;;;0.30;;
71091;SDS011;58751;50.708;7.134;2022-10-15T12:13:37;0.40;;;0.40;;
71091;SDS011;58751;50.708;7.134;2022-10-15T12:16:11;0.30;;;0.20;;
71091;SDS011;58751;50.708;7.134;2022-10-15T12:18:39;0.30;;;0.20;;
71091;SDS011;58751;50.708;7.134;2022-10-15T12:23:47;0.30;;;0.20;;
71091;SDS011;58751;50.708;7.134;2022-10-15T12:26:25;1.23;;;0.27;;
71091;SDS011;58751;50.708;7.134;2022-10-15T12:28:52;0.30;;;0.20;;
71091;SDS011;58751;50.708;7.134;2022-10-15T12:31:18;0.60;;;0.50;;
71091;SDS011;58751;50.708;7.134;2022-10-15T12:33:44;0.40;;;0.20;;
71091;SDS011;58751;50.708;7.134;2022-10-15T12:36:19;0.50;;;0.30;;
71091;SDS011;58751;50.708;7.134;2022-10-15T12:38:50;0.60;;;0.37;;
71091;SDS011;58751;50.708;7.134;2022-10-15T12:41:15;0.40;;;0.30;;
71091;SDS011;58751;50.708;7.134;2022-10-15T12:43:42;0.70;;;0.20;;
71091;SDS011;58751;50.708;7.134;2022-10-15T12:46:09;0.80;;;0.50;;
71091;SDS011;58751;50.708;7.134;2022-10-15T12:48:36;0.50;;;0.20;;
71091;SDS011;58751;50.708;7.134;2022-10-15T12:54:00;0.30;;;0.30;;
71091;SDS011;58751;50.708;7.134;2022-10-15T12:56:34;0.60;;;0.40;;
71091;SDS011;58751;50.708;7.134;2022-10-15T12:58:59;0.50;;;0.30;;
71091;SDS011;58751;50.708;7.134;2022-10-15T13:01:29;0.50;;;0.30;;
71091;SDS011;58751;50.708;7.134;2022-10-15T13:04:13;0.47;;;0.30;;
71091;SDS011;58751;50.708;7.134;2022-10-15T13:06:39;1.13;;;0.30;;
71091;SDS011;58751;50.708;7.134;2022-10-15T13:09:10;0.40;;;0.20;;
71091;SDS011;58751;50.708;7.134;2022-10-15T13:11:39;0.30;;;0.23;;
71091;SDS011;58751;50.708;7.134;2022-10-15T13:14:12;0.40;;;0.20;;
71091;SDS011;58751;50.708;7.134;2022-10-15T13:16:42;0.40;;;0.20;;
71091;SDS011;58751;50.708;7.134;2022-10-15T13:19:15;0.30;;;0.20;;
71091;SDS011;58751;50.708;7.134;2022-10-15T13:21:47;0.33;;;0.30;;
71091;SDS011;58751;50.708;7.134;2022-10-15T13:24:13;0.30;;;0.20;;
71091;SDS011;58751;50.708;7.134;2022-10-15T13:26:40;0.50;;;0.30;;
71091;SDS011;58751;50.708;7.134;2022-10-15T13:29:05;3.70;;;0.30;;
71091;SDS011;58751;50.708;7.134;2022-10-15T13:31:39;0.30;;;0.20;;
71091;SDS011;58751;50.708;7.134;2022-10-15T13:34:07;0.40;;;0.20;;
71091;SDS011;58751;50.708;7.134;2022-10-15T13:36:34;0.30;;;0.20;;
71091;SDS011;58751;50.708;7.134;2022-10-15T13:39:02;0.30;;;0.20;;
71091;SDS011;58751;50.708;7.134;2022-10-15T13:41:29;0.60;;;0.33;;
71091;SDS011;58751;50.708;7.134;2022-10-15T13:43:55;0.87;;;0.30;;
71091;SDS011;58751;50.708;7.134;2022-10-15T13:46:22;1.27;;;0.20;;
71091;SDS011;58751;50.708;7.134;2022-10-15T13:48:47;0.40;;;0.30;;
71091;SDS011;58751;50.708;7.134;2022-10-15T13:51:13;0.40;;;0.20;;
71091;SDS011;58751;50.708;7.134;2022-10-15T13:53:39;0.50;;;0.33;;
71091;SDS011;58751;50.708;7.134;2022-10-15T13:56:18;0.50;;;0.20;;
71091;SDS011;58751;50.708;7.134;2022-10-15T13:58:45;1.07;;;0.33;;
71091;SDS011;58751;50.708;7.134;2022-10-15T14:01:12;0.50;;;0.40;;
71091;SDS011;58751;50.708;7.134;2022-10-15T14:03:44;0.40;;;0.20;;
71091;SDS011;58751;50.708;7.134;2022-10-15T14:06:10;0.30;;;0.30;;
71091;SDS011;58751;50.708;7.134;2022-10-15T14:08:41;0.40;;;0.40;;
71091;SDS011;58751;50.708;7.134;2022-10-15T14:11:09;0.40;;;0.40;;
71091;SDS011;58751;50.708;7.134;2022-10-15T14:13:35;0.40;;;0.30;;
71091;SDS011;58751;50.708;7.134;2022-10-15T14:16:11;0.57;;;0.23;;
71091;SDS011;58751;50.708;7.134;2022-10-15T14:18:38;0.50;;;0.20;;
71091;SDS011;58751;50.708;7.134;2022-10-15T14:21:09;0.30;;;0.20;;
71091;SDS011;58751;50.708;7.134;2022-10-15T14:23:35;0.40;;;0.30;;
71091;SDS011;58751;50.708;7.134;2022-10-15T14:26:01;0.37;;;0.20;;
71091;SDS011;58751;50.708;7.134;2022-10-15T14:28:28;0.30;;;0.23;;
71091;SDS011;58751;50.708;7.134;2022-10-15T14:30:54;0.57;;;0.33;;
71091;SDS011;58751;50.708;7.134;2022-10-15T14:33:39;0.50;;;0.30;;
71091;SDS011;58751;50.708;7.134;2022-10-15T14:36:06;0.40;;;0.20;;
71091;SDS011;58751;50.708;7.134;2022-10-15T14:38:31;0.47;;;0.47;;
71091;SDS011;58751;50.708;7.134;2022-10-15T14:40:57;0.73;;;0.30;;
71091;SDS011;58751;50.708;7.134;2022-10-15T14:43:27;0.40;;;0.30;;
71091;SDS011;58751;50.708;7.134;2022-10-15T14:45:53;0.73;;;0.30;;
71091;SDS011;58751;50.708;7.134;2022-10-15T14:48:20;0.60;;;0.50;;
71091;SDS011;58751;50.708;7.134;2022-10-15T14:50:46;0.60;;;0.40;;
71091;SDS011;58751;50.708;7.134;2022-10-15T14:53:14;0.40;;;0.27;;
71091;SDS011;58751;50.708;7.134;2022-10-15T14:55:41;0.50;;;0.30;;
71091;SDS011;58751;50.708;7.134;2022-10-15T14:58:07;0.60;;;0.40;;